Time;durP1;ratioP1;P1;durP2;ratioP2;P2;SDS_P1;SDS_P2;PMS_P1;PMS_P2;Temp;Humidity;BMP_temperature;BMP_pressure;BME280_temperature;BME280_humidity;BME280_pressure;Samples;Min_cycle;Max_cycle;Signal;HPM_P1;HPM_P2
2021/04/29 00:00:32;;;;;;;13.73;9.90;;;11.80;40.30;;;;;;5037844;28;20047;-67
2021/04/29 00:03:19;;;;;;;13.85;10.57;;;11.80;40.50;;;;;;5016767;28;20049;-67
2021/04/29 00:06:06;;;;;;;13.95;10.52;;;11.80;39.80;;;;;;5039684;28;20068;-68
2021/04/29 00:08:53;;;;;;;15.32;10.60;;;11.80;43.30;;;;;;5027278;28;20056;-67
2021/04/29 00:11:41;;;;;;;14.23;10.05;;;11.90;42.70;;;;;;5036638;28;20060;-65
2021/04/29 00:14:29;;;;;;;14.05;10.60;;;11.70;39.50;;;;;;5033347;28;20603;-66
2021/04/29 00:17:16;;;;;;;14.68;10.82;;;11.80;41.10;;;;;;5020925;28;20054;-66
2021/04/29 00:20:06;;;;;;;13.68;10.48;;;11.70;40.40;;;;;;5036898;28;20139;-66
2021/04/29 00:22:53;;;;;;;12.85;9.55;;;11.70;43.60;;;;;;5027492;28;20407;-66
2021/04/29 00:25:40;;;;;;;11.45;9.13;;;11.70;45.00;;;;;;5027613;28;20056;-66
2021/04/29 00:28:28;;;;;;;12.10;10.45;;;11.80;44.30;;;;;;5037598;28;20137;-66
2021/04/29 00:31:15;;;;;;;14.15;11.23;;;11.70;42.30;;;;;;5025779;28;20038;-67
2021/04/29 00:34:03;;;;;;;15.93;11.15;;;11.70;45.30;;;;;;5031192;28;20104;-67
2021/04/29 00:36:51;;;;;;;14.25;11.00;;;11.70;46.90;;;;;;5036994;28;20045;-67
2021/04/29 00:39:38;;;;;;;15.63;10.45;;;11.60;46.90;;;;;;5028184;28;20510;-67
2021/04/29 00:42:25;;;;;;;15.48;10.88;;;11.70;47.10;;;;;;5016876;28;20610;-66
2021/04/29 00:45:13;;;;;;;15.88;11.10;;;11.60;47.90;;;;;;5036206;28;20096;-66
2021/04/29 00:48:01;;;;;;;15.13;10.82;;;11.70;46.90;;;;;;5023175;28;20038;-66
2021/04/29 00:50:49;;;;;;;15.27;10.70;;;11.70;45.90;;;;;;5034129;28;20789;-65
2021/04/29 00:53:39;;;;;;;16.60;10.60;;;11.70;44.90;;;;;;5019899;28;20072;-67
2021/04/29 00:56:26;;;;;;;15.50;11.63;;;11.90;47.10;;;;;;5025056;28;20183;-66
2021/04/29 00:59:13;;;;;;;16.27;11.55;;;11.90;47.10;;;;;;5027946;28;20091;-67
2021/04/29 01:02:05;;;;;;;16.23;11.95;;;11.80;47.00;;;;;;5033511;28;20449;-67
2021/04/29 01:04:58;;;;;;;13.85;11.45;;;11.70;48.70;;;;;;5034410;28;20511;-67
2021/04/29 01:07:50;;;;;;;20.23;13.43;;;11.80;50.80;;;;;;5040941;28;20047;-67
2021/04/29 01:10:40;;;;;;;16.00;12.40;;;11.80;52.50;;;;;;5026574;28;20049;-66
2021/04/29 01:13:30;;;;;;;16.65;12.68;;;11.70;53.40;;;;;;5016295;28;20037;-67
2021/04/29 01:16:20;;;;;;;16.80;11.95;;;11.80;53.20;;;;;;5021926;28;20071;-65
2021/04/29 01:19:10;;;;;;;14.98;12.25;;;11.80;52.50;;;;;;5017267;28;20505;-66
2021/04/29 01:21:57;;;;;;;14.13;11.25;;;11.90;53.00;;;;;;5016539;28;20571;-66
2021/04/29 01:24:50;;;;;;;13.73;10.52;;;11.90;53.10;;;;;;5033598;28;20103;-67
2021/04/29 01:27:39;;;;;;;13.93;8.77;;;11.90;53.60;;;;;;5025497;28;20042;-67
2021/04/29 01:30:27;;;;;;;11.18;7.70;;;12.10;52.90;;;;;;5037534;28;20110;-67
2021/04/29 01:33:15;;;;;;;10.38;6.75;;;12.10;51.80;;;;;;5020894;28;20183;-65
2021/04/29 01:36:04;;;;;;;8.90;7.32;;;12.00;50.70;;;;;;5036116;28;20119;-67
2021/04/29 01:38:51;;;;;;;11.73;8.07;;;12.10;52.00;;;;;;5026314;28;20543;-66
2021/04/29 01:41:41;;;;;;;10.23;8.23;;;12.00;52.20;;;;;;5026109;28;20109;-66
2021/04/29 01:44:30;;;;;;;9.50;8.40;;;12.00;53.90;;;;;;5030189;28;20081;-66
2021/04/29 01:47:18;;;;;;;12.55;8.88;;;11.90;54.80;;;;;;5028816;28;20084;-65
2021/04/29 01:50:07;;;;;;;13.07;8.55;;;11.90;55.30;;;;;;5027310;28;20057;-66
2021/04/29 01:52:55;;;;;;;10.48;8.73;;;11.80;55.10;;;;;;5025339;28;20068;-66
2021/04/29 01:55:43;;;;;;;14.18;9.50;;;11.90;57.20;;;;;;5023342;28;20341;-65
2021/04/29 01:58:30;;;;;;;11.85;9.30;;;12.00;57.70;;;;;;5031094;28;20261;-65
2021/04/29 02:01:18;;;;;;;13.35;9.57;;;11.80;56.50;;;;;;5037857;28;20061;-65
2021/04/29 02:04:07;;;;;;;12.75;9.40;;;11.80;57.60;;;;;;5019225;28;20057;-67
2021/04/29 02:06:54;;;;;;;14.27;9.88;;;11.80;58.00;;;;;;5042112;28;20044;-64
2021/04/29 02:09:41;;;;;;;12.05;9.40;;;11.80;59.10;;;;;;5028236;28;20087;-64
2021/04/29 02:12:34;;;;;;;10.82;9.52;;;11.80;58.70;;;;;;5018485;28;20088;-65
2021/04/29 02:15:24;;;;;;;16.17;10.85;;;11.70;59.00;;;;;;5035177;28;20057;-64
2021/04/29 02:18:14;;;;;;;19.13;12.95;;;11.50;58.00;;;;;;5031704;28;20825;-65
2021/04/29 02:21:01;;;;;;;17.67;12.35;;;11.60;59.50;;;;;;5046511;28;20127;-66
2021/04/29 02:23:49;;;;;;;20.98;13.18;;;11.50;59.50;;;;;;5024123;28;20132;-66
2021/04/29 02:26:36;;;;;;;16.02;11.82;;;11.60;60.70;;;;;;5031226;28;20064;-66
2021/04/29 02:29:24;;;;;;;15.93;12.75;;;11.40;60.00;;;;;;5028316;28;20045;-65
2021/04/29 02:32:11;;;;;;;15.82;13.65;;;11.50;60.90;;;;;;5022296;28;20050;-65
2021/04/29 02:35:02;;;;;;;19.85;13.93;;;11.50;61.20;;;;;;5034824;28;20053;-66
2021/04/29 02:37:51;;;;;;;18.77;14.63;;;11.40;60.60;;;;;;5025750;28;20132;-65
2021/04/29 02:40:38;;;;;;;22.80;16.13;;;11.40;61.40;;;;;;5036108;28;20050;-66
2021/04/29 02:43:26;;;;;;;20.63;15.00;;;11.30;61.70;;;;;;5029733;28;20041;-66
2021/04/29 02:46:15;;;;;;;18.90;14.48;;;11.40;62.80;;;;;;5039495;28;20052;-66
2021/04/29 02:49:02;;;;;;;18.80;14.73;;;11.30;62.70;;;;;;5025448;28;20331;-67
2021/04/29 02:51:52;;;;;;;16.08;12.70;;;11.40;62.80;;;;;;5028623;28;20051;-65
2021/04/29 02:54:39;;;;;;;18.75;14.18;;;11.30;62.80;;;;;;5026166;28;20046;-66
2021/04/29 02:57:26;;;;;;;17.30;13.13;;;11.30;62.90;;;;;;5033144;28;20061;-66
2021/04/29 03:00:17;;;;;;;17.50;12.20;;;11.30;63.70;;;;;;5037798;28;20579;-65
2021/04/29 03:03:06;;;;;;;18.58;12.88;;;11.30;63.30;;;;;;5028225;28;20045;-66
2021/04/29 03:05:54;;;;;;;22.58;14.70;;;11.30;63.60;;;;;;5030396;28;20041;-66
2021/04/29 03:08:42;;;;;;;18.65;12.88;;;11.20;62.50;;;;;;5023899;28;20057;-67
2021/04/29 03:11:29;;;;;;;19.60;13.02;;;11.20;62.70;;;;;;5025982;28;20552;-65
2021/04/29 03:14:17;;;;;;;15.52;12.27;;;11.20;62.70;;;;;;5026342;28;20132;-66
2021/04/29 03:17:04;;;;;;;11.98;9.65;;;11.10;60.90;;;;;;5036358;28;20061;-66
2021/04/29 03:19:52;;;;;;;11.90;9.45;;;11.10;59.70;;;;;;5031017;28;20045;-67
2021/04/29 03:22:39;;;;;;;8.88;7.75;;;11.00;59.30;;;;;;5034583;28;20044;-66
2021/04/29 03:25:27;;;;;;;10.43;8.10;;;10.90;57.50;;;;;;5032024;28;20207;-67
2021/04/29 03:28:14;;;;;;;9.32;7.50;;;11.00;58.70;;;;;;5025915;28;20574;-66
2021/04/29 03:31:01;;;;;;;7.47;5.95;;;11.00;58.40;;;;;;5025291;28;20124;-66
2021/04/29 03:33:49;;;;;;;6.78;5.78;;;10.90;56.30;;;;;;5028950;28;20041;-66
2021/04/29 03:36:37;;;;;;;6.47;4.97;;;10.80;57.10;;;;;;5043933;28;20150;-65
2021/04/29 03:39:24;;;;;;;5.13;4.25;;;10.80;56.10;;;;;;5038775;28;20068;-66
2021/04/29 03:42:13;;;;;;;4.75;4.03;;;10.80;55.00;;;;;;5023353;28;20063;-66
2021/04/29 03:45:00;;;;;;;4.40;3.40;;;10.80;54.50;;;;;;5042407;28;20044;-67
2021/04/29 03:47:47;;;;;;;4.63;3.65;;;10.70;52.50;;;;;;5027069;28;20493;-66
2021/04/29 03:50:35;;;;;;;3.80;2.65;;;10.70;50.40;;;;;;5039456;28;20554;-66
2021/04/29 03:53:22;;;;;;;3.05;2.75;;;10.80;49.10;;;;;;5024864;28;20465;-66
2021/04/29 03:56:09;;;;;;;3.40;2.50;;;10.70;49.80;;;;;;5032262;28;20076;-66
2021/04/29 03:58:57;;;;;;;2.53;2.17;;;10.60;47.60;;;;;;5030529;28;20073;-66
2021/04/29 04:01:44;;;;;;;5.18;2.63;;;10.60;46.60;;;;;;5042650;28;20175;-67
2021/04/29 04:04:32;;;;;;;3.20;2.78;;;10.60;48.50;;;;;;5027739;28;20045;-66
2021/04/29 04:07:19;;;;;;;5.22;3.08;;;10.70;48.00;;;;;;5045652;28;20503;-67
2021/04/29 04:10:07;;;;;;;3.30;2.60;;;10.60;48.10;;;;;;5022564;28;20060;-66
2021/04/29 04:12:55;;;;;;;3.85;3.10;;;10.60;48.00;;;;;;5031599;28;20075;-66
2021/04/29 04:15:43;;;;;;;3.80;3.28;;;10.60;48.00;;;;;;5031848;28;20716;-66
2021/04/29 04:18:30;;;;;;;4.70;3.45;;;10.60;47.10;;;;;;5026745;28;20505;-67
2021/04/29 04:21:17;;;;;;;4.03;3.33;;;10.60;50.40;;;;;;5033460;28;20357;-67
2021/04/29 04:24:05;;;;;;;4.47;4.07;;;10.50;45.80;;;;;;5021891;28;20149;-66
2021/04/29 04:26:52;;;;;;;3.97;3.00;;;10.40;46.70;;;;;;5041183;28;20539;-65
2021/04/29 04:29:39;;;;;;;5.82;3.40;;;10.40;45.40;;;;;;5036206;28;20238;-66
2021/04/29 04:32:27;;;;;;;3.58;3.25;;;10.40;46.80;;;;;;5033669;28;20082;-65
2021/04/29 04:35:15;;;;;;;5.00;3.22;;;10.50;46.30;;;;;;5029726;28;20192;-65
2021/04/29 04:38:02;;;;;;;4.82;3.55;;;10.50;45.80;;;;;;5037502;28;20075;-66
2021/04/29 04:40:49;;;;;;;4.47;3.90;;;10.50;46.70;;;;;;5037072;28;20075;-67
2021/04/29 04:43:36;;;;;;;5.07;3.92;;;10.50;47.50;;;;;;5028502;28;20072;-66
2021/04/29 04:46:25;;;;;;;6.65;4.10;;;10.50;46.20;;;;;;5036209;28;20175;-66
2021/04/29 04:49:13;;;;;;;5.00;3.75;;;10.50;45.80;;;;;;5022546;28;20053;-66
2021/04/29 04:52:01;;;;;;;4.40;3.22;;;10.50;45.90;;;;;;5036575;28;20048;-66
2021/04/29 04:54:49;;;;;;;4.55;3.88;;;10.60;45.90;;;;;;5036832;28;20041;-67
2021/04/29 04:57:36;;;;;;;4.60;4.10;;;10.60;45.90;;;;;;5043416;28;20078;-66
2021/04/29 05:00:23;;;;;;;5.13;3.78;;;10.80;43.60;;;;;;5024697;28;20541;-67
2021/04/29 05:03:11;;;;;;;4.13;3.35;;;12.30;26.40;;;;;;5029321;28;20046;-66
2021/04/29 05:06:00;;;;;;;4.57;3.42;;;13.30;17.30;;;;;;5028606;28;20053;-66
2021/04/29 05:08:47;;;;;;;5.20;3.47;;;13.00;16.10;;;;;;5033898;28;20694;-66
2021/04/29 05:11:34;;;;;;;4.75;3.45;;;13.80;12.20;;;;;;5033267;28;20123;-66
2021/04/29 05:14:21;;;;;;;4.75;3.70;;;14.60;7.20;;;;;;5029136;28;20048;-66
2021/04/29 05:17:08;;;;;;;5.82;2.70;;;14.60;3.50;;;;;;5032949;28;20458;-66
2021/04/29 05:19:57;;;;;;;2.08;1.85;;;15.20;1.00;;;;;;5030055;28;20037;-65
2021/04/29 05:22:46;;;;;;;2.05;1.80;;;15.30;1.00;;;;;;5020988;28;20037;-67
2021/04/29 05:25:33;;;;;;;3.70;2.20;;;15.20;1.00;;;;;;5033986;28;20820;-65
2021/04/29 05:28:23;;;;;;;2.55;2.17;;;15.40;1.00;;;;;;5032428;28;20053;-66
2021/04/29 05:31:10;;;;;;;3.22;1.85;;;15.90;1.00;;;;;;5026221;28;20632;-66
2021/04/29 05:33:57;;;;;;;3.42;1.92;;;15.70;1.00;;;;;;5020982;28;20068;-66
2021/04/29 05:36:45;;;;;;;2.42;1.85;;;14.30;2.30;;;;;;5035098;28;20052;-66
2021/04/29 05:39:33;;;;;;;3.15;1.80;;;13.10;3.90;;;;;;5029016;28;20644;-66
2021/04/29 05:42:20;;;;;;;2.38;2.00;;;12.60;11.30;;;;;;5034937;28;20064;-66
2021/04/29 05:45:09;;;;;;;4.88;2.13;;;12.40;16.10;;;;;;5037613;28;20450;-66
2021/04/29 05:47:56;;;;;;;4.18;2.40;;;12.30;15.20;;;;;;5037470;28;20132;-66
2021/04/29 05:50:43;;;;;;;3.90;2.03;;;12.20;14.60;;;;;;5035452;28;20056;-65
2021/04/29 05:53:30;;;;;;;5.15;2.33;;;12.30;15.70;;;;;;5026360;28;20120;-66
2021/04/29 05:56:18;;;;;;;3.00;1.88;;;12.20;11.10;;;;;;5040233;28;20045;-66
2021/04/29 05:59:06;;;;;;;4.63;2.20;;;12.00;12.10;;;;;;5020513;28;20049;-66
2021/04/29 06:01:53;;;;;;;5.50;2.47;;;12.10;12.30;;;;;;5021375;28;20081;-65
2021/04/29 06:05:00;;;;;;;2.88;2.30;;;11.80;12.70;;;;;;5031403;28;20045;-65
2021/04/29 06:07:54;;;;;;;5.43;2.70;;;12.10;16.70;;;;;;5032497;28;20110;-67
2021/04/29 06:10:41;;;;;;;3.97;2.70;;;12.40;14.30;;;;;;5029846;28;20635;-66
2021/04/29 06:13:29;;;;;;;6.60;2.90;;;12.80;12.10;;;;;;5016697;28;20214;-66
2021/04/29 06:16:17;;;;;;;3.30;2.72;;;13.10;9.70;;;;;;5021697;28;20071;-67
2021/04/29 06:19:04;;;;;;;4.13;2.40;;;13.40;7.10;;;;;;5033922;28;20061;-65
2021/04/29 06:21:51;;;;;;;6.97;3.03;;;13.50;6.00;;;;;;5035360;28;20041;-67
2021/04/29 06:24:38;;;;;;;5.97;2.88;;;13.40;4.80;;;;;;5035032;28;20750;-66
2021/04/29 06:27:26;;;;;;;8.68;2.60;;;13.80;4.00;;;;;;5043859;28;20098;-66
2021/04/29 06:30:15;;;;;;;5.88;3.20;;;13.70;2.80;;;;;;5027147;28;20191;-66
2021/04/29 06:33:02;;;;;;;4.38;2.53;;;13.80;2.70;;;;;;5021417;28;20046;-67
2021/04/29 06:35:50;;;;;;;6.70;2.60;;;13.60;1.30;;;;;;5039965;28;20069;-65
2021/04/29 06:38:37;;;;;;;11.50;3.25;;;13.80;1.60;;;;;;5038897;28;20088;-66
2021/04/29 06:41:24;;;;;;;6.38;3.35;;;13.80;2.30;;;;;;5043670;28;20053;-67
2021/04/29 06:44:12;;;;;;;5.93;3.35;;;13.90;1.00;;;;;;5019578;28;20128;-67
2021/04/29 06:47:00;;;;;;;8.77;3.83;;;14.00;1.00;;;;;;5040951;28;20042;-67
2021/04/29 06:49:48;;;;;;;4.97;3.08;;;14.00;1.00;;;;;;5030447;28;20520;-66
2021/04/29 06:52:35;;;;;;;6.13;3.13;;;13.50;1.00;;;;;;5034194;28;20131;-66
2021/04/29 06:55:23;;;;;;;4.05;3.22;;;13.60;1.00;;;;;;5027252;28;20069;-66
2021/04/29 06:58:10;;;;;;;4.78;3.75;;;14.40;1.00;;;;;;5025862;28;20785;-67
2021/04/29 07:01:00;;;;;;;7.57;3.85;;;13.90;1.00;;;;;;5032221;28;20731;-67
2021/04/29 07:03:48;;;;;;;11.80;7.20;;;13.80;1.00;;;;;;5025741;28;20061;-67
2021/04/29 07:06:35;;;;;;;9.05;4.50;;;13.50;1.00;;;;;;5041505;28;20131;-67
2021/04/29 07:09:22;;;;;;;8.57;3.78;;;14.00;1.00;;;;;;5023117;28;20127;-67
2021/04/29 07:12:09;;;;;;;7.00;3.08;;;14.10;1.00;;;;;;5034835;28;20055;-68
2021/04/29 07:14:57;;;;;;;8.13;3.40;;;13.80;1.00;;;;;;5038677;28;20045;-67
2021/04/29 07:17:44;;;;;;;5.35;2.97;;;14.10;1.00;;;;;;5035430;28;20053;-67
2021/04/29 07:20:34;;;;;;;4.82;3.40;;;14.50;1.00;;;;;;5026844;28;20137;-67
2021/04/29 07:23:22;;;;;;;7.45;4.03;;;14.50;1.00;;;;;;5029208;28;20033;-67
2021/04/29 07:26:09;;;;;;;5.85;3.05;;;14.20;1.00;;;;;;5026657;28;20049;-67
2021/04/29 07:28:56;;;;;;;7.22;3.60;;;14.20;1.00;;;;;;5032148;28;20067;-67
2021/04/29 07:31:44;;;;;;;6.70;4.40;;;14.40;1.00;;;;;;5036032;28;20045;-67
2021/04/29 07:34:37;;;;;;;9.35;3.70;;;14.50;1.00;;;;;;5028593;28;20076;-66
2021/04/29 07:37:25;;;;;;;6.68;4.38;;;14.60;1.00;;;;;;5039598;28;20179;-67
2021/04/29 07:40:13;;;;;;;6.82;3.70;;;14.70;1.00;;;;;;5036642;28;20049;-66
2021/04/29 07:43:01;;;;;;;6.00;3.80;;;14.80;1.00;;;;;;5033944;28;20037;-67
2021/04/29 07:45:48;;;;;;;5.60;4.03;;;15.40;1.00;;;;;;5034688;28;20187;-67
2021/04/29 07:48:35;;;;;;;7.32;4.22;;;15.50;1.00;;;;;;5023610;28;20064;-67
2021/04/29 07:51:23;;;;;;;6.38;3.83;;;15.00;1.00;;;;;;5041567;28;21196;-67
2021/04/29 07:54:13;;;;;;;6.97;4.63;;;15.50;1.00;;;;;;5032420;28;20386;-65
2021/04/29 07:57:01;;;;;;;5.03;3.75;;;16.20;1.00;;;;;;5030504;28;20505;-66
2021/04/29 07:59:48;;;;;;;8.70;4.10;;;15.60;1.00;;;;;;5021368;28;20075;-67
2021/04/29 08:02:36;;;;;;;6.95;4.60;;;15.60;1.00;;;;;;5035159;28;20051;-66
2021/04/29 08:05:23;;;;;;;7.47;4.40;;;15.20;1.00;;;;;;5044341;28;20049;-67
2021/04/29 08:08:11;;;;;;;10.02;5.03;;;15.40;1.00;;;;;;5022389;28;20481;-66
2021/04/29 08:11:05;;;;;;;6.88;5.18;;;15.90;1.00;;;;;;5042584;28;20452;-67
2021/04/29 08:13:54;;;;;;;8.02;4.88;;;15.70;1.00;;;;;;5032335;28;20187;-67
2021/04/29 08:16:41;;;;;;;9.05;4.43;;;15.70;1.00;;;;;;5036846;28;20047;-67
2021/04/29 08:19:30;;;;;;;8.40;4.97;;;16.00;1.00;;;;;;5028208;28;20469;-67
2021/04/29 08:22:17;;;;;;;7.25;4.57;;;16.30;1.00;;;;;;5032824;28;20057;-67
2021/04/29 08:25:06;;;;;;;6.93;5.18;;;16.70;1.00;;;;;;5040250;28;20060;-66
2021/04/29 08:27:54;;;;;;;8.13;5.38;;;16.70;1.00;;;;;;5026290;28;20045;-67
2021/04/29 08:30:41;;;;;;;7.45;5.78;;;15.80;1.00;;;;;;5026234;28;20046;-67
2021/04/29 08:33:29;;;;;;;10.73;7.28;;;15.80;1.00;;;;;;5030010;28;20087;-67
2021/04/29 08:36:18;;;;;;;8.77;5.43;;;16.20;1.00;;;;;;5035969;28;20083;-66
2021/04/29 08:39:06;;;;;;;7.40;5.60;;;15.80;1.00;;;;;;5032320;28;20045;-67
2021/04/29 08:41:53;;;;;;;9.43;6.20;;;15.80;1.00;;;;;;5028639;28;20044;-67
2021/04/29 08:44:42;;;;;;;10.43;5.93;;;15.20;1.00;;;;;;5024580;28;20049;-66
2021/04/29 08:47:38;;;;;;;6.15;5.50;;;14.90;1.00;;;;;;5042087;28;20121;-67
2021/04/29 08:50:34;;;;;;;8.50;5.65;;;14.70;1.00;;;;;;5028962;28;20401;-67
2021/04/29 08:53:22;;;;;;;11.45;5.68;;;15.10;1.00;;;;;;5025381;28;20114;-66
2021/04/29 08:56:09;;;;;;;7.82;5.40;;;15.30;1.00;;;;;;5031067;28;20071;-67
2021/04/29 08:58:58;;;;;;;9.88;6.50;;;14.40;1.00;;;;;;5035180;28;20060;-66
2021/04/29 09:01:47;;;;;;;8.00;5.90;;;14.30;1.00;;;;;;5027324;28;20087;-66
2021/04/29 09:04:42;;;;;;;9.40;6.68;;;14.00;1.00;;;;;;5028410;28;20126;-66
2021/04/29 09:07:29;;;;;;;9.43;7.10;;;14.00;1.40;;;;;;5039977;28;20059;-67
2021/04/29 09:10:22;;;;;;;9.55;7.10;;;13.40;4.10;;;;;;5039184;28;20037;-67
2021/04/29 09:13:17;;;;;;;11.73;7.43;;;13.50;4.20;;;;;;5026175;28;20042;-67
2021/04/29 09:16:09;;;;;;;10.77;7.82;;;13.50;6.40;;;;;;5027598;28;20144;-66
2021/04/29 09:18:57;;;;;;;11.75;8.30;;;13.00;7.30;;;;;;5035230;28;20049;-66
2021/04/29 09:21:44;;;;;;;11.65;8.45;;;13.10;9.30;;;;;;5027391;28;20045;-67
2021/04/29 09:24:34;;;;;;;11.23;7.30;;;13.10;12.00;;;;;;5038402;28;20053;-67
2021/04/29 09:27:24;;;;;;;10.93;8.77;;;12.80;13.30;;;;;;5025226;28;20053;-66
2021/04/29 09:30:12;;;;;;;16.30;9.15;;;12.90;17.00;;;;;;5025197;28;20055;-66
2021/04/29 09:33:01;;;;;;;14.57;9.20;;;12.80;22.00;;;;;;5033672;28;20041;-66
2021/04/29 09:35:49;;;;;;;18.83;9.48;;;12.80;27.40;;;;;;5035847;28;20376;-67
2021/04/29 09:38:38;;;;;;;12.98;9.20;;;12.70;21.20;;;;;;5023439;28;20056;-67
2021/04/29 09:41:28;;;;;;;12.75;9.57;;;12.70;20.90;;;;;;5026944;28;20057;-67
2021/04/29 09:44:18;;;;;;;14.75;9.88;;;12.80;27.00;;;;;;5033037;28;20041;-68
2021/04/29 09:47:11;;;;;;;14.57;11.32;;;13.10;24.20;;;;;;5036522;28;20060;-68
2021/04/29 09:49:58;;;;;;;19.63;10.07;;;13.60;26.50;;;;;;5028408;28;20049;-67
2021/04/29 09:53:01;;;;;;;11.75;9.15;;;14.00;21.30;;;;;;5031252;28;20045;-67
2021/04/29 09:55:49;;;;;;;15.05;9.07;;;14.50;18.70;;;;;;5037031;28;20060;-68
2021/04/29 09:58:37;;;;;;;13.55;8.93;;;14.60;14.60;;;;;;5022712;28;20056;-68
2021/04/29 10:01:26;;;;;;;13.40;9.00;;;14.50;14.50;;;;;;5029668;28;20041;-67
2021/04/29 10:04:14;;;;;;;11.73;9.02;;;14.60;13.10;;;;;;5019408;28;20053;-67
2021/04/29 10:07:01;;;;;;;11.23;8.68;;;14.50;12.10;;;;;;5036672;28;20045;-68
2021/04/29 10:09:51;;;;;;;8.55;7.25;;;14.80;10.40;;;;;;5022724;28;20128;-67
2021/04/29 10:12:40;;;;;;;12.40;7.78;;;15.30;5.20;;;;;;5029048;28;20672;-67
2021/04/29 10:15:27;;;;;;;11.32;7.85;;;15.30;3.20;;;;;;5023950;28;20092;-68
2021/04/29 10:18:15;;;;;;;9.85;6.90;;;15.40;1.30;;;;;;5022647;28;20143;-68
2021/04/29 10:21:06;;;;;;;7.93;6.60;;;15.10;1.00;;;;;;5031673;28;20044;-67
2021/04/29 10:23:54;;;;;;;7.90;6.82;;;15.50;1.00;;;;;;5020156;28;20323;-68
2021/04/29 10:26:42;;;;;;;12.23;7.25;;;15.20;1.00;;;;;;5030028;28;20045;-68
2021/04/29 10:29:29;;;;;;;9.48;6.38;;;15.30;1.00;;;;;;5026326;28;20060;-68
2021/04/29 10:32:16;;;;;;;10.50;6.78;;;15.50;1.00;;;;;;5023712;28;20057;-68
2021/04/29 10:35:15;;;;;;;11.18;7.15;;;15.60;1.00;;;;;;5034053;28;20039;-68
2021/04/29 10:38:03;;;;;;;11.90;7.70;;;16.20;1.00;;;;;;5039397;28;20128;-68
2021/04/29 10:40:51;;;;;;;10.60;7.30;;;16.30;1.00;;;;;;5035605;28;20086;-68
2021/04/29 10:43:39;;;;;;;9.38;7.40;;;16.40;1.00;;;;;;5021351;28;20516;-66
2021/04/29 10:46:29;;;;;;;7.65;6.85;;;16.40;1.00;;;;;;5034317;28;20060;-67
2021/04/29 10:49:17;;;;;;;7.93;7.13;;;15.90;1.00;;;;;;5039786;28;20052;-67
2021/04/29 10:52:04;;;;;;;9.38;5.88;;;15.10;1.00;;;;;;5036498;28;20049;-66
2021/04/29 10:54:53;;;;;;;5.00;4.47;;;13.50;1.00;;;;;;5042561;28;20041;-66
2021/04/29 10:57:41;;;;;;;11.25;5.95;;;12.40;1.00;;;;;;5037199;28;20048;-67
2021/04/29 11:00:30;;;;;;;6.78;5.20;;;12.30;1.00;;;;;;5040000;28;20094;-68
2021/04/29 11:03:28;;;;;;;5.60;3.97;;;12.40;1.00;;;;;;5021748;28;20046;-67
2021/04/29 11:06:17;;;;;;;6.90;4.50;;;12.00;1.00;;;;;;5025090;28;20450;-67
2021/04/29 11:09:16;;;;;;;6.05;4.13;;;12.40;1.00;;;;;;5032670;28;20461;-67
2021/04/29 11:12:06;;;;;;;4.90;3.60;;;12.30;1.00;;;;;;5025151;28;20494;-67
2021/04/29 11:14:54;;;;;;;8.40;4.72;;;12.00;1.00;;;;;;5039921;28;20045;-67
2021/04/29 11:17:42;;;;;;;10.43;4.78;;;12.30;1.00;;;;;;5036636;28;20377;-65
2021/04/29 11:20:44;;;;;;;7.95;4.65;;;11.60;1.00;;;;;;5041147;28;20037;-66
2021/04/29 11:23:40;;;;;;;5.63;4.80;;;11.60;1.00;;;;;;5016368;28;20041;-66
2021/04/29 11:26:34;;;;;;;6.28;5.15;;;11.90;1.00;;;;;;5034056;28;20079;-67
2021/04/29 11:29:22;;;;;;;9.10;5.85;;;12.20;1.00;;;;;;5026118;28;20064;-67
2021/04/29 11:32:09;;;;;;;8.52;4.80;;;12.50;1.00;;;;;;5022744;28;20221;-68
2021/04/29 11:34:57;;;;;;;9.55;5.18;;;12.40;1.00;;;;;;5035072;28;20042;-67
2021/04/29 11:37:45;;;;;;;7.88;4.50;;;12.70;1.00;;;;;;5038058;28;20045;-67
2021/04/29 11:40:34;;;;;;;11.88;5.05;;;13.00;1.00;;;;;;5043145;28;20049;-66
2021/04/29 11:43:22;;;;;;;8.90;4.95;;;13.00;1.00;;;;;;5021745;28;20033;-67
2021/04/29 11:46:21;;;;;;;8.93;5.28;;;12.70;1.00;;;;;;5032405;28;20053;-67
2021/04/29 11:49:09;;;;;;;8.57;5.10;;;12.80;1.00;;;;;;5034339;28;20053;-68
2021/04/29 11:51:57;;;;;;;6.60;4.70;;;13.10;1.00;;;;;;5026033;28;20108;-68
2021/04/29 11:54:49;;;;;;;7.40;5.03;;;13.40;1.00;;;;;;5041407;28;20049;-69
2021/04/29 11:57:37;;;;;;;9.95;4.72;;;13.50;1.00;;;;;;5033522;28;20053;-67
2021/04/29 12:00:31;;;;;;;7.95;4.72;;;13.60;1.00;;;;;;5034351;28;20098;-67
2021/04/29 12:03:19;;;;;;;7.60;4.23;;;14.30;1.00;;;;;;5020984;28;20048;-66
2021/04/29 12:06:07;;;;;;;5.47;3.88;;;14.10;1.00;;;;;;5031467;28;20098;-66
2021/04/29 12:08:55;;;;;;;7.10;4.18;;;14.40;1.00;;;;;;5025542;28;20123;-66
2021/04/29 12:11:42;;;;;;;7.53;4.00;;;14.90;1.00;;;;;;5038312;28;20416;-66
2021/04/29 12:14:29;;;;;;;8.25;3.42;;;15.00;1.00;;;;;;5028302;28;20087;-66
2021/04/29 12:17:17;;;;;;;3.88;3.20;;;15.00;1.00;;;;;;5034131;28;20045;-67
2021/04/29 12:20:08;;;;;;;5.55;3.25;;;15.20;1.00;;;;;;5039846;28;20052;-66
2021/04/29 12:22:55;;;;;;;4.63;2.90;;;14.60;1.00;;;;;;5025586;28;20137;-67
2021/04/29 12:25:54;;;;;;;5.78;4.05;;;14.90;1.00;;;;;;5040798;28;20053;-67
2021/04/29 12:28:43;;;;;;;7.18;4.18;;;15.10;1.00;;;;;;5024626;28;20509;-66
2021/04/29 12:31:31;;;;;;;5.88;3.88;;;14.40;1.00;;;;;;5029654;28;21889;-65
2021/04/29 12:34:19;;;;;;;4.72;4.20;;;14.60;1.00;;;;;;5020235;28;20055;-66
2021/04/29 12:37:07;;;;;;;9.07;4.90;;;14.80;1.00;;;;;;5030012;28;20147;-66
2021/04/29 12:39:56;;;;;;;9.90;5.05;;;15.00;1.00;;;;;;5030121;28;20065;-66
2021/04/29 12:42:44;;;;;;;8.45;5.15;;;14.90;1.00;;;;;;5026275;28;20500;-65
2021/04/29 12:45:46;;;;;;;8.65;5.65;;;14.60;1.00;;;;;;5031456;28;20045;-66
2021/04/29 12:48:35;;;;;;;7.93;5.22;;;14.10;1.00;;;;;;5028033;28;20049;-66
2021/04/29 12:51:23;;;;;;;10.65;5.45;;;13.70;1.00;;;;;;5031612;28;20182;-66
2021/04/29 12:54:13;;;;;;;7.63;5.50;;;13.80;1.00;;;;;;5013454;28;20037;-65
2021/04/29 12:57:01;;;;;;;6.55;5.75;;;13.40;1.00;;;;;;5032765;28;20045;-64
2021/04/29 12:59:50;;;;;;;9.65;6.32;;;13.40;1.00;;;;;;5029385;28;20129;-66
2021/04/29 13:02:37;;;;;;;14.18;6.60;;;13.30;1.00;;;;;;5031756;28;20044;-66
2021/04/29 13:05:24;;;;;;;9.48;6.75;;;13.20;1.00;;;;;;5041344;28;20067;-66
2021/04/29 13:08:12;;;;;;;9.20;6.85;;;13.10;1.00;;;;;;5028513;28;20577;-67
2021/04/29 13:10:59;;;;;;;7.90;5.60;;;13.50;1.00;;;;;;5037113;28;20045;-65
2021/04/29 13:13:47;;;;;;;7.78;6.20;;;13.30;1.00;;;;;;5015027;28;20408;-66
2021/04/29 13:16:36;;;;;;;8.20;5.93;;;13.00;1.00;;;;;;5025269;28;20110;-65
2021/04/29 13:19:24;;;;;;;6.93;5.40;;;13.30;1.00;;;;;;5023912;28;20045;-66
2021/04/29 13:22:13;;;;;;;11.38;5.60;;;13.50;1.00;;;;;;5021805;28;20055;-66
2021/04/29 13:25:02;;;;;;;7.88;5.50;;;14.30;1.00;;;;;;5032790;28;20093;-66
2021/04/29 13:27:51;;;;;;;9.07;5.22;;;14.40;1.00;;;;;;5021665;28;20053;-67
2021/04/29 13:30:38;;;;;;;7.72;4.95;;;14.40;1.00;;;;;;5027152;28;20464;-67
2021/04/29 13:33:26;;;;;;;21.48;6.40;;;14.30;1.00;;;;;;5016395;28;20422;-67
2021/04/29 13:36:15;;;;;;;6.82;5.20;;;15.10;1.00;;;;;;5036692;28;20068;-67
2021/04/29 13:39:04;;;;;;;7.28;5.57;;;15.10;1.00;;;;;;5026234;28;20486;-67
2021/04/29 13:41:52;;;;;;;5.88;4.43;;;14.80;1.00;;;;;;5024930;28;20076;-66
2021/04/29 13:44:40;;;;;;;7.40;4.82;;;14.50;1.00;;;;;;5026408;28;20046;-66
2021/04/29 13:47:27;;;;;;;7.97;5.47;;;14.70;1.00;;;;;;5028597;28;21705;-66
2021/04/29 13:50:16;;;;;;;7.43;5.53;;;14.90;1.00;;;;;;5026524;28;20053;-67
2021/04/29 13:53:03;;;;;;;7.75;5.70;;;14.80;1.00;;;;;;5023571;28;20143;-66
2021/04/29 13:55:50;;;;;;;9.70;5.57;;;14.80;1.00;;;;;;5026475;28;20041;-66
2021/04/29 13:58:37;;;;;;;8.63;5.97;;;14.80;1.00;;;;;;5019183;28;20061;-66
2021/04/29 14:01:25;;;;;;;10.45;4.95;;;15.20;1.00;;;;;;5041602;28;20041;-65
2021/04/29 14:04:16;;;;;;;7.15;5.07;;;15.70;1.00;;;;;;5029277;28;20044;-66
2021/04/29 14:07:06;;;;;;;9.32;5.15;;;15.40;1.00;;;;;;5032949;28;20445;-67
2021/04/29 14:09:54;;;;;;;12.05;4.88;;;15.50;1.00;;;;;;5038219;28;20559;-68
2021/04/29 14:12:42;;;;;;;9.10;5.18;;;15.80;1.00;;;;;;5019341;28;20072;-65
2021/04/29 14:15:30;;;;;;;7.85;4.72;;;16.00;1.00;;;;;;5031984;28;20048;-66
2021/04/29 14:18:17;;;;;;;8.80;5.30;;;16.10;1.00;;;;;;5036942;28;20191;-68
2021/04/29 14:21:04;;;;;;;5.38;4.22;;;16.20;1.00;;;;;;5029771;28;20053;-67
2021/04/29 14:23:52;;;;;;;9.73;4.78;;;16.30;1.00;;;;;;5019588;28;20042;-66
2021/04/29 14:26:42;;;;;;;6.68;5.35;;;15.80;1.00;;;;;;5043380;28;20053;-66
2021/04/29 14:29:29;;;;;;;5.80;4.43;;;15.40;1.00;;;;;;5028545;28;20044;-65
2021/04/29 14:32:16;;;;;;;6.47;4.35;;;15.20;1.00;;;;;;5036348;28;20515;-67
2021/04/29 14:35:04;;;;;;;9.65;3.80;;;15.50;1.00;;;;;;5041008;28;20068;-68
2021/04/29 14:37:52;;;;;;;7.50;3.47;;;15.50;1.00;;;;;;5029736;28;20060;-67